KSUN/SUN METAR and TAF weather

Enter ICAO airport designator
Station Type Date Time Source
KSUN METAR 2022/01/25 03:53 UTC NOAA

KSUN 250353Z 00000KT 2SM -SN BKN010 BKN021 OVC035 M09/M10 A3006


Station Type Date Time Source
KSUN Decoded METAR 2022/01/25 03:53 UTC NOAA

Hailey, Friedman Memorial Airport, ID, United States (KSUN) 43-30N 114-18W
Jan 24, 2022 - 10:53 PM EST / 2022.01.25 0353 UTC
Wind: Calm:0
Visibility: 2 mile(s):0
Sky conditions: overcast
Weather: light snow
Temperature: 15 F (-9 C)
Dew Point: 14 F (-10 C)
Relative Humidity: 92%
Pressure (altimeter): 30.06 in. Hg (1017 hPa)
ob: KSUN 250353Z 00000KT 2SM -SN BKN010 BKN021 OVC035 M09/M10 A3006
cycle: 4

Station Type Date Time Source
KSUN TAF 2022/01/25 04:40 UTC NOAA

TAF
AMD KSUN 250338Z 2504/2606 VRB04KT 1SM -SN BR OVC005
FM250500 VRB04KT 5SM -SN BR OVC009
TEMPO 2505/2507 4SM -SN OVC007
FM251000 33010KT 2SM BR OVC008
FM251900 13007KT P6SM SCT015
FM260300 32008KT P6SM SKC
AMD LTD TO CLD VIS AND WIND 2506/2514

Example: see airport list